createdAt,value
2018-11-22T07:03:49.915Z,22.48
2018-11-22T07:06:29.611Z,22.44
2018-11-22T07:09:11.375Z,22.55
2018-11-22T07:11:50.832Z,22.63
2018-11-22T07:14:30.536Z,22.74
2018-11-22T07:17:10.138Z,22.82
2018-11-22T07:19:49.689Z,22.94
2018-11-22T07:22:28.803Z,23.03
2018-11-22T07:25:08.127Z,23.09
2018-11-22T07:27:47.048Z,23.19
2018-11-22T07:30:27.538Z,23.27
2018-11-22T07:33:07.499Z,23.32
2018-11-22T07:35:46.773Z,23.36
2018-11-22T07:38:26.052Z,23.40
2018-11-22T07:41:04.968Z,23.45
2018-11-22T07:43:44.625Z,23.48
2018-11-22T07:46:24.520Z,23.51
2018-11-22T07:49:03.901Z,23.50
2018-11-22T07:54:19.915Z,23.47
2018-11-22T07:56:59.275Z,23.50
2018-11-22T07:59:38.360Z,23.56
2018-11-22T08:02:17.784Z,23.57
2018-11-22T08:04:56.701Z,23.61
2018-11-22T08:07:35.795Z,23.65
2018-11-22T08:10:17.051Z,23.70
2018-11-22T08:12:57.592Z,23.74
2018-11-22T08:15:38.899Z,23.75
2018-11-22T08:18:18.516Z,23.77
2018-11-22T08:20:57.484Z,23.80
2018-11-22T08:23:36.961Z,23.83
2018-11-22T08:26:16.522Z,23.86
2018-11-22T08:28:55.915Z,23.93
2018-11-22T08:31:35.033Z,23.96
2018-11-22T08:34:14.319Z,23.99
2018-11-22T08:36:54.555Z,24.04
2018-11-22T08:39:33.886Z,24.06
2018-11-22T08:42:14.267Z,24.12
2018-11-22T08:44:53.904Z,24.18
2018-11-22T08:47:33.393Z,24.19
2018-11-22T08:50:15.479Z,24.21
2018-11-22T08:52:56.453Z,24.22
2018-11-22T08:55:35.841Z,24.21
2018-11-22T08:58:15.200Z,24.24
2018-11-22T09:00:55.175Z,24.31
2018-11-22T09:03:34.983Z,24.35
2018-11-22T09:06:14.599Z,24.37
2018-11-22T09:08:54.332Z,24.37
2018-11-22T09:11:33.608Z,24.39
2018-11-22T09:14:12.877Z,24.39
2018-11-22T09:16:51.931Z,24.42
2018-11-22T09:19:31.051Z,24.43
2018-11-22T09:22:11.115Z,24.43
2018-11-22T09:24:50.094Z,24.43
2018-11-22T09:27:29.273Z,24.45
2018-11-22T09:30:10.133Z,24.46
2018-11-22T09:32:50.298Z,24.46
2018-11-22T09:35:30.539Z,24.51
2018-11-22T09:38:09.896Z,24.53
2018-11-22T09:40:49.086Z,24.56
2018-11-22T09:43:28.126Z,24.54
2018-11-22T09:46:07.231Z,24.56
2018-11-22T09:48:46.274Z,24.57
2018-11-22T09:51:25.304Z,24.59
2018-11-22T09:54:04.789Z,24.60
2018-11-22T09:56:44.158Z,24.61
2018-11-22T09:59:23.837Z,24.62
2018-11-22T10:02:03.455Z,24.61
2018-11-22T10:04:43.778Z,24.61
2018-11-22T10:07:22.686Z,24.63
2018-11-22T10:10:01.866Z,24.63
2018-11-22T10:12:40.878Z,24.63
2018-11-22T10:15:21.602Z,24.63
2018-11-22T10:18:01.114Z,24.66
2018-11-22T10:20:39.999Z,24.64
2018-11-22T10:23:19.546Z,24.66
2018-11-22T10:25:58.445Z,24.71
2018-11-22T10:28:37.680Z,24.79
2018-11-22T10:31:17.107Z,24.86
2018-11-22T10:34:01.582Z,24.94
2018-11-22T10:36:41.064Z,24.98
2018-11-22T12:43:01.437Z,24.22
2018-11-22T12:45:40.793Z,24.19
2018-11-22T12:48:19.846Z,24.25
2018-11-22T12:50:59.010Z,24.35
2018-11-22T12:53:38.199Z,24.47
2018-11-22T12:56:17.079Z,24.58
2018-11-22T12:58:56.074Z,24.70
2018-11-22T13:01:35.866Z,24.77
2018-11-22T13:04:14.768Z,24.81
2018-11-22T13:06:53.864Z,24.86
2018-11-22T13:09:32.753Z,24.89
2018-11-22T13:12:12.669Z,24.93
2018-11-22T13:14:52.055Z,24.92
2018-11-22T13:17:32.027Z,24.92
2018-11-22T13:20:13.645Z,24.92
2018-11-22T13:22:53.104Z,24.93
2018-11-22T13:25:32.448Z,24.95
2018-11-22T13:28:11.372Z,24.96
2018-11-22T13:30:50.284Z,24.99
2018-11-22T13:33:29.442Z,25.00
2018-11-22T13:36:08.452Z,25.02
2018-11-22T13:38:47.536Z,25.02
2018-11-22T13:41:26.996Z,25.05
2018-11-22T13:44:06.205Z,25.07
2018-11-22T13:46:46.319Z,25.08
2018-11-22T13:49:25.934Z,25.10
2018-11-22T13:52:05.389Z,25.09
2018-11-22T13:54:45.719Z,25.10
2018-11-22T13:57:26.344Z,25.11
2018-11-22T14:00:06.286Z,25.14
2018-11-22T14:02:46.055Z,25.14
2018-11-22T14:05:25.261Z,25.14
2018-11-22T14:08:04.374Z,25.14
2018-11-22T14:10:44.440Z,25.12
2018-11-22T14:13:25.168Z,25.12
2018-11-22T14:16:04.173Z,25.09
2018-11-22T14:18:44.033Z,25.07
2018-11-22T14:21:23.845Z,25.06
2018-11-22T14:24:03.454Z,25.03
2018-11-22T14:26:42.558Z,25.02
2018-11-22T14:29:21.553Z,25.01
2018-11-22T14:32:01.811Z,25.00
2018-11-22T14:34:41.918Z,24.99
2018-11-22T14:37:22.351Z,24.98
2018-11-22T14:40:03.462Z,24.98
2018-11-22T14:42:43.427Z,24.97
2018-11-22T14:45:23.143Z,24.97
2018-11-22T14:48:04.165Z,24.95
2018-11-22T14:51:05.250Z,24.98
2018-11-22T14:53:45.070Z,24.98
2018-11-22T14:56:24.997Z,24.99
2018-11-22T14:59:05.844Z,25.01
2018-11-22T15:01:45.786Z,25.02
2018-11-22T15:04:26.160Z,25.03
2018-11-22T15:07:05.739Z,25.03
2018-11-22T15:09:46.287Z,25.02
2018-11-22T15:12:25.895Z,25.03
2018-11-22T15:15:05.995Z,25.00
2018-11-22T15:17:50.433Z,25.01
2018-11-22T15:20:32.616Z,25.02
2018-11-22T15:23:12.306Z,25.03
2018-11-22T15:25:52.879Z,25.05
2018-11-22T15:28:32.354Z,25.04
2018-11-22T15:31:11.830Z,25.06
2018-11-22T15:33:53.921Z,25.04
2018-11-22T15:36:34.532Z,25.05
2018-11-22T15:39:15.415Z,25.05
2018-11-22T15:41:54.414Z,25.06
2018-11-22T15:44:34.579Z,25.07
2018-11-22T15:47:14.575Z,25.08
2018-11-22T15:49:54.351Z,25.07
2018-11-22T15:52:33.931Z,25.06
2018-11-22T15:55:20.456Z,25.07
2018-11-22T15:57:55.133Z,25.08
2018-11-22T16:00:36.200Z,25.06
2018-11-22T16:03:16.371Z,25.07
2018-11-22T16:05:56.291Z,25.07
2018-11-22T16:08:36.079Z,25.05
2018-11-22T16:11:15.969Z,25.02
2018-11-22T16:13:55.733Z,24.99
2018-11-22T16:16:36.374Z,24.98
2018-11-22T16:19:16.802Z,24.99
